Time;durP1;ratioP1;P1;durP2;ratioP2;P2;SDS_P1;SDS_P2;PMS_P1;PMS_P2;Temp;Humidity;BMP_temperature;BMP_pressure;BME280_temperature;BME280_humidity;BME280_pressure;Samples;Min_cycle;Max_cycle;Signal;HPM_P1;HPM_P2
2023/12/15 00:01:00;;;;;;;8.90;6.90;;;;;;;0.75;92.12;101019.11;112646;245;38229;-72
2023/12/15 00:03:50;;;;;;;9.80;7.50;;;;;;;0.74;91.86;101020.48;112318;245;153480;-72
2023/12/15 00:06:24;;;;;;;10.80;7.70;;;;;;;0.73;91.69;101024.59;112581;246;38286;-72
2023/12/15 00:09:00;;;;;;;12.80;7.90;;;;;;;0.72;91.75;101033.32;112345;245;154324;-72
2023/12/15 00:11:49;;;;;;;10.00;7.00;;;;;;;0.70;91.43;101036.73;112521;246;38264;-72
2023/12/15 00:14:23;;;;;;;10.80;7.00;;;;;;;0.68;91.60;101045.46;112435;244;153992;-71
2023/12/15 00:16:57;;;;;;;10.90;7.30;;;;;;;0.70;91.67;101051.52;112615;240;38333;-72
2023/12/15 00:19:31;;;;;;;11.20;7.90;;;;;;;0.71;91.60;101054.44;112632;244;41067;-72
2023/12/15 00:22:05;;;;;;;9.70;7.30;;;;;;;0.73;91.87;101055.33;112602;240;38512;-71
2023/12/15 00:24:39;;;;;;;9.40;7.40;;;;;;;0.73;91.81;101058.42;112828;243;39226;-71
2023/12/15 00:27:13;;;;;;;9.10;6.80;;;;;;;0.70;91.44;101063.34;112628;241;155051;-71
2023/12/15 00:29:47;;;;;;;8.90;6.90;;;;;;;0.70;91.58;101068.32;112813;243;38338;-71
2023/12/15 00:35:46;;;;;;;8.10;7.00;;;;;;;0.71;91.91;101078.65;112794;240;38236;-70
2023/12/15 00:38:19;;;;;;;8.70;7.00;;;;;;;0.75;91.95;101074.41;112599;242;154062;-73
2023/12/15 00:40:53;;;;;;;8.20;7.00;;;;;;;0.73;91.77;101077.30;112506;244;175357;-73
2023/12/15 00:43:30;;;;;;;8.40;6.50;;;;;;;0.71;91.89;101082.25;112616;244;38269;-72
2023/12/15 00:46:04;;;;;;;9.20;6.80;;;;;;;0.67;91.61;101084.44;112516;243;154203;-72
2023/12/15 00:48:38;;;;;;;9.70;7.10;;;;;;;0.67;91.82;101090.61;112643;244;38298;-72
2023/12/15 00:51:12;;;;;;;9.20;7.60;;;;;;;0.66;91.72;101091.09;112514;243;153049;-71
2023/12/15 00:53:46;;;;;;;8.50;7.40;;;;;;;0.61;91.66;101100.83;112657;244;38289;-71
2023/12/15 00:56:20;;;;;;;8.60;7.10;;;;;;;0.55;91.68;101101.27;112517;243;153167;-72
2023/12/15 00:58:54;;;;;;;10.50;7.40;;;;;;;0.49;91.78;101106.49;112627;244;38251;-72
2023/12/15 01:01:28;;;;;;;8.90;6.80;;;;;;;0.45;91.90;101108.32;112638;244;38289;-71
2023/12/15 01:04:12;;;;;;;8.50;7.50;;;;;;;0.40;91.77;101114.41;112523;243;153671;-71
2023/12/15 01:06:46;;;;;;;8.20;6.80;;;;;;;0.35;91.87;101119.67;112767;243;38602;-72
2023/12/15 01:09:21;;;;;;;10.50;7.80;;;;;;;0.32;92.15;101118.77;112648;241;152901;-72
2023/12/15 01:15:37;;;;;;;11.00;8.20;;;;;;;0.22;92.62;101129.41;111858;243;763359;-71
2023/12/15 01:18:12;;;;;;;9.60;7.50;;;;;;;0.22;92.66;101131.30;112634;245;39936;-72
2023/12/15 01:20:46;;;;;;;9.30;7.40;;;;;;;0.26;92.85;101130.34;112586;243;154113;-72
2023/12/15 01:23:20;;;;;;;9.20;7.80;;;;;;;0.27;92.90;101129.84;112643;245;38321;-72
2023/12/15 01:25:54;;;;;;;10.70;8.10;;;;;;;0.30;92.96;101131.95;112531;242;153795;-72
2023/12/15 01:28:28;;;;;;;11.90;8.30;;;;;;;0.29;92.92;101125.23;112612;244;38291;-71
2023/12/15 01:31:02;;;;;;;11.10;8.80;;;;;;;0.27;92.91;101133.45;112651;244;39762;-71
2023/12/15 01:33:36;;;;;;;9.50;7.50;;;;;;;0.25;92.89;101141.98;112643;244;38237;-71
2023/12/15 01:36:11;;;;;;;9.60;7.50;;;;;;;0.24;92.85;101146.60;112654;244;39567;-71
2023/12/15 01:42:27;;;;;;;10.80;8.40;;;;;;;0.28;93.34;101165.88;112680;241;38348;-70
2023/12/15 01:45:01;;;;;;;12.20;9.10;;;;;;;0.30;93.31;101173.13;112710;241;153312;-72
2023/12/15 01:47:36;;;;;;;11.60;9.10;;;;;;;0.31;93.21;101175.71;112722;242;39446;-72
2023/12/15 01:50:11;;;;;;;10.30;8.10;;;;;;;0.27;93.04;101174.46;112593;243;154754;-72
2023/12/15 01:52:45;;;;;;;11.60;8.60;;;;;;;0.29;93.26;101177.56;112624;244;38454;-72
2023/12/15 01:55:22;;;;;;;10.20;7.90;;;;;;;0.31;93.22;101176.58;112631;245;40143;-72
2023/12/15 02:01:12;;;;;;;12.00;8.70;;;;;;;0.33;93.36;101179.36;112731;242;38289;-72
2023/12/15 02:03:46;;;;;;;10.70;8.80;;;;;;;0.35;93.57;101184.88;112585;243;154151;-72
2023/12/15 02:06:20;;;;;;;10.60;8.40;;;;;;;0.35;93.44;101187.97;112649;244;38287;-72
2023/12/15 02:09:03;;;;;;;10.60;7.90;;;;;;;0.35;93.28;101191.06;112668;244;38564;-72
2023/12/15 02:14:59;;;;;;;10.80;8.20;;;;;;;0.36;93.24;101198.63;112656;241;38455;-72
2023/12/15 02:17:34;;;;;;;9.80;7.70;;;;;;;0.36;93.32;101207.73;112748;244;38259;-72
2023/12/15 02:20:10;;;;;;;11.10;8.20;;;;;;;0.38;93.47;101210.33;112754;243;38974;-72
2023/12/15 02:22:43;;;;;;;10.50;8.10;;;;;;;0.36;93.30;101216.66;112594;245;175341;-72
2023/12/15 02:25:18;;;;;;;10.90;7.40;;;;;;;0.34;93.11;101219.88;112636;245;38299;-71
2023/12/15 02:27:53;;;;;;;10.00;8.00;;;;;;;0.34;93.17;101212.99;112543;242;153975;-71
2023/12/15 02:30:31;;;;;;;10.80;9.00;;;;;;;0.39;93.49;101216.00;112647;244;38277;-71
2023/12/15 02:33:05;;;;;;;11.60;8.20;;;;;;;0.44;93.64;101218.49;112461;243;153347;-71
2023/12/15 02:35:41;;;;;;;13.30;9.60;;;;;;;0.45;93.73;101221.27;112660;244;38272;-72
2023/12/15 02:38:18;;;;;;;12.70;9.10;;;;;;;0.47;93.81;101220.96;112542;242;154558;-72
2023/12/15 02:40:52;;;;;;;14.80;9.20;;;;;;;0.48;93.52;101223.73;112707;245;39963;-72
2023/12/15 02:43:26;;;;;;;11.00;8.30;;;;;;;0.46;93.33;101221.80;112648;245;38425;-72
2023/12/15 02:45:59;;;;;;;12.00;8.70;;;;;;;0.50;93.61;101221.52;112682;245;39460;-72
2023/12/15 02:48:33;;;;;;;14.10;9.70;;;;;;;0.52;93.53;101226.02;112586;245;39122;-72
2023/12/15 02:51:15;;;;;;;13.00;9.90;;;;;;;0.54;93.62;101226.91;112563;242;153326;-71
2023/12/15 02:53:55;;;;;;;12.60;8.60;;;;;;;0.53;93.56;101228.61;112679;245;40000;-71
2023/12/15 02:56:29;;;;;;;13.80;9.30;;;;;;;0.51;93.22;101228.05;112380;241;175375;-71
2023/12/15 02:59:04;;;;;;;10.70;8.00;;;;;;;0.50;93.19;101235.61;112669;244;38556;-72
2023/12/15 03:01:38;;;;;;;10.20;8.50;;;;;;;0.52;93.10;101235.11;112668;244;39040;-72
2023/12/15 03:04:12;;;;;;;12.00;8.90;;;;;;;0.52;93.15;101255.19;112637;242;153290;-72
2023/12/15 03:06:46;;;;;;;15.00;10.50;;;;;;;0.49;93.09;101271.80;112642;245;38382;-72
2023/12/15 03:09:20;;;;;;;15.40;9.30;;;;;;;0.50;93.53;101277.51;112436;244;153626;-72
2023/12/15 03:11:56;;;;;;;11.80;9.10;;;;;;;0.52;93.47;101279.40;112536;245;38979;-72
2023/12/15 03:14:30;;;;;;;12.40;8.40;;;;;;;0.55;93.49;101280.14;112536;243;154605;-71
2023/12/15 03:17:04;;;;;;;10.70;8.00;;;;;;;0.53;93.18;101284.41;112629;245;38262;-71
2023/12/15 03:19:47;;;;;;;12.90;9.50;;;;;;;0.54;93.28;101296.95;112633;245;38827;-71
2023/12/15 03:22:21;;;;;;;12.70;9.20;;;;;;;0.53;93.23;101288.68;112266;244;154125;-70
2023/12/15 03:24:55;;;;;;;14.30;9.70;;;;;;;0.52;93.13;101306.35;112582;247;38685;-71
2023/12/15 03:27:41;;;;;;;14.20;9.90;;;;;;;0.49;93.06;101294.46;112365;244;153460;-71
2023/12/15 03:33:38;;;;;;;12.90;9.20;;;;;;;0.45;92.90;101310.02;112695;242;38287;-72
2023/12/15 03:36:13;;;;;;;13.30;9.30;;;;;;;0.47;92.92;101315.89;112920;243;38356;-71
2023/12/15 03:38:47;;;;;;;11.90;9.00;;;;;;;0.48;92.80;101316.77;112807;240;153334;-71
2023/12/15 03:41:21;;;;;;;14.10;10.50;;;;;;;0.47;92.65;101314.85;112832;243;38977;-77
2023/12/15 03:43:55;;;;;;;13.20;9.50;;;;;;;0.44;92.50;101310.52;112887;243;38562;-72
2023/12/15 03:46:32;;;;;;;12.80;8.80;;;;;;;0.41;92.42;101319.20;112751;240;153800;31
2023/12/15 03:49:06;;;;;;;12.80;8.90;;;;;;;0.39;92.46;101322.60;112559;245;40409;-70
2023/12/15 03:51:40;;;;;;;11.10;8.90;;;;;;;0.38;92.38;101319.66;112501;245;155409;-72
2023/12/15 03:54:14;;;;;;;13.60;9.10;;;;;;;0.36;92.34;101319.45;112626;245;38865;-72
2023/12/15 03:56:48;;;;;;;13.50;9.40;;;;;;;0.35;92.46;101322.02;112527;243;153377;-71
2023/12/15 03:59:26;;;;;;;14.10;9.90;;;;;;;0.35;92.62;101335.55;112628;246;38869;-71
2023/12/15 04:02:01;;;;;;;12.60;9.30;;;;;;;0.35;92.47;101341.08;112464;244;172675;-71
2023/12/15 04:04:34;;;;;;;11.90;8.90;;;;;;;0.35;92.48;101343.64;112490;243;154856;-72
2023/12/15 04:07:08;;;;;;;13.60;9.70;;;;;;;0.36;92.30;101347.77;112639;244;38469;-72
2023/12/15 04:09:42;;;;;;;13.30;10.00;;;;;;;0.35;92.42;101353.42;112526;242;153331;-72
2023/12/15 04:12:16;;;;;;;12.80;9.30;;;;;;;0.35;92.55;101353.25;112647;244;38618;-72
2023/12/15 04:14:50;;;;;;;14.20;9.60;;;;;;;0.36;92.92;101349.67;112519;243;153271;-71
2023/12/15 04:17:24;;;;;;;13.00;9.20;;;;;;;0.40;93.07;101351.45;112621;245;40128;-72
2023/12/15 04:19:58;;;;;;;13.00;9.50;;;;;;;0.41;92.95;101355.95;112643;245;38388;-73
2023/12/15 04:22:31;;;;;;;12.00;9.00;;;;;;;0.44;92.96;101356.16;112531;242;153614;-72
2023/12/15 04:25:06;;;;;;;11.20;9.70;;;;;;;0.46;92.98;101358.79;112613;244;38845;-71
2023/12/15 04:27:41;;;;;;;14.20;9.90;;;;;;;0.50;93.24;101364.54;112517;243;154811;-71
2023/12/15 04:33:56;;;;;;;13.60;9.20;;;;;;;0.45;92.76;101370.45;112716;241;39325;-70
2023/12/15 04:36:30;;;;;;;13.40;9.90;;;;;;;0.44;92.69;101370.60;112651;243;38928;-71
2023/12/15 04:39:04;;;;;;;13.50;9.90;;;;;;;0.45;92.88;101379.55;112761;243;153951;-71
2023/12/15 04:41:40;;;;;;;13.00;10.00;;;;;;;0.51;93.24;101378.46;112798;243;38825;-70
2023/12/15 04:44:13;;;;;;;14.50;10.40;;;;;;;0.54;93.46;101381.76;112817;243;38291;-70
2023/12/15 04:46:48;;;;;;;13.10;9.70;;;;;;;0.58;93.47;101376.17;112674;241;153225;-71
2023/12/15 04:49:22;;;;;;;15.20;9.20;;;;;;;0.61;93.16;101380.36;112819;243;39208;-71
2023/12/15 04:51:57;;;;;;;12.60;9.30;;;;;;;0.61;92.85;101384.64;112688;243;154469;-71
2023/12/15 04:54:31;;;;;;;13.90;9.70;;;;;;;0.59;92.48;101382.38;112850;243;38226;-71
2023/12/15 04:57:07;;;;;;;14.50;10.30;;;;;;;0.58;92.55;101385.62;112914;243;38277;-71
2023/12/15 04:59:41;;;;;;;15.50;9.70;;;;;;;0.54;92.26;101395.67;112602;245;39323;-71
2023/12/15 05:02:15;;;;;;;13.30;9.60;;;;;;;0.50;92.26;101402.47;112635;243;38548;-70
2023/12/15 05:08:12;;;;;;;12.50;8.70;;;;;;;0.45;92.43;101407.35;112798;241;38350;-71
2023/12/15 05:14:24;;;;;;;;;;;;;;;0.47;92.75;101404.13;112768;241;38355;-71
2023/12/15 05:16:57;;;;;;;15.10;10.20;;;;;;;0.45;92.95;101405.29;112544;242;139582;-72
2023/12/15 05:19:31;;;;;;;15.30;10.00;;;;;;;0.46;93.08;101418.35;112612;244;39780;-73
2023/12/15 05:22:05;;;;;;;14.50;9.70;;;;;;;0.46;92.97;101425.58;112499;242;154226;-70
2023/12/15 05:24:40;;;;;;;12.80;9.30;;;;;;;0.47;93.03;101427.64;112608;244;39636;-70
2023/12/15 05:27:14;;;;;;;14.20;9.80;;;;;;;0.50;93.06;101426.33;112373;241;175327;-72
2023/12/15 05:29:48;;;;;;;14.80;9.80;;;;;;;0.50;92.84;101429.25;112634;245;38945;-72
2023/12/15 05:32:22;;;;;;;15.20;11.00;;;;;;;0.51;92.92;101430.98;112650;245;38333;-72
2023/12/15 05:34:56;;;;;;;13.70;9.90;;;;;;;0.49;92.80;101431.46;112542;242;153787;-72
2023/12/15 05:37:31;;;;;;;15.30;10.00;;;;;;;0.48;92.79;101432.30;112615;245;41494;-71
2023/12/15 05:40:09;;;;;;;16.20;9.90;;;;;;;0.48;92.82;101428.85;112473;245;154278;-71
2023/12/15 05:42:43;;;;;;;14.20;10.10;;;;;;;0.52;92.90;101437.70;112601;245;41514;-71
2023/12/15 05:45:17;;;;;;;16.00;11.30;;;;;;;0.55;92.97;101439.13;112493;243;154397;-71
2023/12/15 05:47:51;;;;;;;14.80;10.80;;;;;;;0.60;93.08;101441.80;112622;244;39457;-71
2023/12/15 05:50:28;;;;;;;15.50;10.90;;;;;;;0.61;93.08;101441.84;112611;245;39604;-70
2023/12/15 05:53:02;;;;;;;13.70;9.70;;;;;;;0.63;92.93;101444.10;112506;242;155185;-69
2023/12/15 06:05:40;;;;;;;16.50;11.00;;;;;;;0.63;92.78;101451.48;112803;241;38239;-70
2023/12/15 06:08:14;;;;;;;16.00;11.20;;;;;;;0.61;92.77;101456.42;112867;242;39202;-70
2023/12/15 06:10:51;;;;;;;16.90;10.90;;;;;;;0.61;92.74;101457.28;112754;242;38037;-71
2023/12/15 06:13:25;;;;;;;16.20;10.90;;;;;;;0.61;92.70;101461.41;112839;242;39387;-71
2023/12/15 06:15:59;;;;;;;17.90;12.30;;;;;;;0.62;92.68;101461.41;112767;240;154166;-70
2023/12/15 06:18:33;;;;;;;18.00;12.20;;;;;;;0.64;92.61;101467.30;112837;242;38464;-70
2023/12/15 06:21:08;;;;;;;18.10;11.60;;;;;;;0.64;92.37;101469.37;112729;240;153680;-71
2023/12/15 06:23:42;;;;;;;18.30;11.40;;;;;;;0.57;92.15;101474.55;112913;242;38996;-71
2023/12/15 06:26:23;;;;;;;16.70;11.50;;;;;;;0.56;92.41;101475.73;112867;242;38308;-70
2023/12/15 06:28:57;;;;;;;17.30;10.70;;;;;;;0.59;92.54;101476.98;112539;241;154546;-71
2023/12/15 06:31:31;;;;;;;18.70;12.30;;;;;;;0.62;92.51;101483.06;112871;243;39780;-72
2023/12/15 06:34:05;;;;;;;16.00;11.30;;;;;;;0.66;92.62;101487.09;112657;241;153669;-72
2023/12/15 06:36:40;;;;;;;19.00;12.10;;;;;;;0.68;92.61;101488.14;112762;243;38418;-72
2023/12/15 06:39:14;;;;;;;16.80;11.90;;;;;;;0.65;92.42;101494.64;112539;241;154201;-71
2023/12/15 06:41:48;;;;;;;17.10;11.70;;;;;;;0.66;92.59;101496.02;112685;243;39063;-73
2023/12/15 06:44:22;;;;;;;15.60;10.70;;;;;;;0.68;92.58;101496.41;112865;243;38621;-73
2023/12/15 06:46:56;;;;;;;17.10;11.60;;;;;;;0.71;92.69;101504.55;112533;241;155069;-72
2023/12/15 06:49:31;;;;;;;17.10;12.10;;;;;;;0.73;92.65;101505.96;112849;243;39446;-72
2023/12/15 06:52:05;;;;;;;17.80;12.10;;;;;;;0.72;92.43;101507.65;112590;243;154401;-73
2023/12/15 06:58:08;;;;;;;16.30;11.30;;;;;;;0.71;92.59;101512.45;112780;242;38233;-72
2023/12/15 07:00:42;;;;;;;16.30;11.40;;;;;;;0.74;92.53;101514.56;112776;244;38376;-72
2023/12/15 07:03:18;;;;;;;18.30;12.50;;;;;;;0.76;92.48;101517.52;112652;243;153928;-72
2023/12/15 07:05:52;;;;;;;16.80;12.60;;;;;;;0.75;92.28;101517.67;112743;245;38239;-72
2023/12/15 07:08:26;;;;;;;18.90;12.50;;;;;;;0.77;92.40;101519.09;112591;243;38382;-72
2023/12/15 07:11:01;;;;;;;19.60;12.20;;;;;;;0.78;92.48;101521.34;112631;243;153469;-71
2023/12/15 07:13:35;;;;;;;22.10;13.00;;;;;;;0.79;92.44;101527.89;112660;244;38434;-71
2023/12/15 07:19:50;;;;;;;18.40;12.70;;;;;;;0.77;92.44;101535.56;112529;241;38325;-72
2023/12/15 07:28:57;;;;;;;23.20;14.70;;;;;;;0.88;92.53;101544.37;112804;242;38363;-70
2023/12/15 07:31:34;;;;;;;20.90;13.10;;;;;;;0.87;92.18;101546.59;112787;243;41037;-71
2023/12/15 07:34:08;;;;;;;23.20;13.90;;;;;;;0.88;92.10;101554.52;112592;242;154423;-70
2023/12/15 07:36:42;;;;;;;20.60;12.30;;;;;;;0.91;92.10;101557.68;112609;243;175271;-71
2023/12/15 07:39:21;;;;;;;21.50;14.10;;;;;;;0.96;92.14;101559.15;112652;242;154472;-72
2023/12/15 07:41:55;;;;;;;23.10;14.50;;;;;;;1.00;92.11;101556.67;112553;243;175240;-71
2023/12/15 07:48:13;;;;;;;23.10;14.50;;;;;;;1.04;92.14;101561.73;112780;241;38398;-70
2023/12/15 07:50:48;;;;;;;23.90;14.70;;;;;;;1.09;92.18;101566.27;112878;243;38259;-71
2023/12/15 07:53:23;;;;;;;24.00;14.60;;;;;;;1.12;92.02;101572.35;112547;241;155286;-70
2023/12/15 07:55:56;;;;;;;24.70;15.20;;;;;;;1.14;91.83;101577.39;112849;243;38573;-70
2023/12/15 07:58:30;;;;;;;23.50;14.90;;;;;;;1.16;91.77;101579.14;112605;241;153794;-71
2023/12/15 08:01:04;;;;;;;22.40;14.80;;;;;;;1.17;91.74;101578.14;112765;243;38318;-72
2023/12/15 08:07:20;;;;;;;21.70;13.50;;;;;;;1.18;92.02;101597.05;112803;241;38251;-71
2023/12/15 08:09:54;;;;;;;20.70;14.10;;;;;;;1.20;91.79;101599.16;112678;243;154966;-70
2023/12/15 08:15:52;;;;;;;22.90;14.70;;;;;;;1.23;92.00;101606.27;112568;241;153900;-72
2023/12/15 08:18:28;;;;;;;24.60;15.70;;;;;;;1.26;92.10;101608.56;112546;244;41282;-73
2023/12/15 08:21:02;;;;;;;25.80;15.30;;;;;;;1.30;92.21;101607.80;112768;244;38679;-72
2023/12/15 08:23:42;;;;;;;24.10;15.00;;;;;;;1.28;91.77;101611.36;112494;242;155327;-72
2023/12/15 08:29:44;;;;;;;24.80;15.20;;;;;;;1.34;92.22;101609.77;112674;241;38316;-71
2023/12/15 08:32:18;;;;;;;22.70;15.20;;;;;;;1.39;92.26;101620.17;112841;243;39239;-72
2023/12/15 08:34:52;;;;;;;22.10;15.30;;;;;;;1.34;91.88;101618.00;112580;241;153738;-72
2023/12/15 08:37:27;;;;;;;21.00;15.20;;;;;;;1.33;92.14;101615.92;112749;243;39674;-71
2023/12/15 08:43:34;;;;;;;22.70;13.30;;;;;;;1.39;92.58;101607.80;112474;243;38292;-72
2023/12/15 08:46:09;;;;;;;21.20;13.80;;;;;;;1.47;92.81;101608.63;112630;241;154018;-72
2023/12/15 08:48:43;;;;;;;21.20;14.10;;;;;;;1.54;92.67;101608.59;112748;243;39287;-71
2023/12/15 08:51:17;;;;;;;24.90;15.50;;;;;;;1.56;92.41;101614.30;112878;243;38449;-71
2023/12/15 08:57:34;;;;;;;20.70;14.10;;;;;;;1.68;92.61;101636.89;112730;241;155792;-72
2023/12/15 09:03:31;;;;;;;23.70;15.40;;;;;;;1.73;92.44;101662.45;112660;241;154822;-72
2023/12/15 09:06:10;;;;;;;25.60;16.40;;;;;;;1.80;92.69;101662.58;112637;243;38351;-72
2023/12/15 09:08:44;;;;;;;27.30;17.70;;;;;;;1.88;92.65;101660.98;112885;243;38247;-72
2023/12/15 09:11:23;;;;;;;22.80;16.10;;;;;;;1.93;92.74;101665.04;112851;243;38347;-71
2023/12/15 09:13:57;;;;;;;26.40;17.00;;;;;;;1.95;92.20;101661.81;112620;244;39649;-71
2023/12/15 09:16:31;;;;;;;23.30;16.20;;;;;;;2.01;92.28;101659.49;112293;244;153828;-72
2023/12/15 09:19:05;;;;;;;30.00;17.80;;;;;;;2.08;92.15;101668.92;112337;245;175218;-73
2023/12/15 09:21:39;;;;;;;28.30;17.90;;;;;;;2.12;92.16;101675.70;112609;245;38623;-71
2023/12/15 09:24:15;;;;;;;28.00;17.80;;;;;;;2.14;92.10;101679.19;112615;245;38237;-72
2023/12/15 09:26:49;;;;;;;28.90;18.30;;;;;;;2.16;91.91;101689.54;112610;245;38362;-72
2023/12/15 09:29:22;;;;;;;25.00;17.60;;;;;;;2.19;92.05;101688.75;112641;245;39438;-70
2023/12/15 09:31:56;;;;;;;26.60;17.20;;;;;;;2.23;91.68;101690.02;112613;245;38353;-71
2023/12/15 09:34:30;;;;;;;26.20;17.10;;;;;;;2.25;91.39;101694.37;112494;244;154346;-72
2023/12/15 09:37:05;;;;;;;26.60;16.80;;;;;;;2.25;91.53;101690.73;112558;245;38180;-70
2023/12/15 09:39:39;;;;;;;26.00;17.50;;;;;;;2.27;91.55;101688.03;112668;244;38628;-72
2023/12/15 09:42:13;;;;;;;25.00;16.20;;;;;;;2.30;91.53;101692.20;112490;245;38694;-72
2023/12/15 09:44:47;;;;;;;24.00;15.70;;;;;;;2.32;91.40;101693.80;112591;245;38473;-72
2023/12/15 09:47:22;;;;;;;23.60;16.20;;;;;;;2.37;91.37;101689.58;112604;245;39807;-72
2023/12/15 09:49:57;;;;;;;23.50;15.80;;;;;;;2.42;91.36;101690.86;112666;245;38826;-72
2023/12/15 09:52:30;;;;;;;25.50;16.60;;;;;;;2.47;91.36;101691.63;112460;245;38322;-71
2023/12/15 09:55:06;;;;;;;26.30;17.10;;;;;;;2.45;90.85;101685.91;112533;245;175210;-70
2023/12/15 09:57:40;;;;;;;22.70;15.80;;;;;;;2.43;90.83;101684.15;112621;245;38418;-71
2023/12/15 10:00:16;;;;;;;23.80;15.20;;;;;;;2.44;91.06;101681.41;112502;244;154222;-71
2023/12/15 10:02:50;;;;;;;21.40;14.90;;;;;;;2.48;91.14;101682.52;112629;245;40224;-70
2023/12/15 10:05:25;;;;;;;24.80;15.80;;;;;;;2.56;91.29;101686.77;112519;243;154108;-71
2023/12/15 10:07:59;;;;;;;23.20;16.50;;;;;;;2.62;91.14;101698.58;112614;245;38254;-73
2023/12/15 10:10:34;;;;;;;26.20;17.50;;;;;;;2.60;90.82;101697.00;112492;245;153758;-72
2023/12/15 10:13:08;;;;;;;23.40;16.40;;;;;;;2.59;90.62;101694.41;112468;246;39650;-73
2023/12/15 10:15:43;;;;;;;25.70;16.70;;;;;;;2.53;90.12;101691.02;112473;245;40302;-73
2023/12/15 10:18:21;;;;;;;28.40;17.40;;;;;;;2.47;90.06;101682.33;112492;245;153895;-72
2023/12/15 10:20:57;;;;;;;23.30;14.60;;;;;;;2.44;90.05;101697.26;112711;244;39126;-72
2023/12/15 10:23:32;;;;;;;23.30;16.30;;;;;;;2.44;90.23;101703.80;112530;243;153921;-72
2023/12/15 10:26:07;;;;;;;26.10;17.30;;;;;;;2.47;90.47;101712.98;112623;244;38253;-72
2023/12/15 10:28:42;;;;;;;26.90;17.50;;;;;;;2.48;90.38;101704.90;112554;243;153719;-72
2023/12/15 10:31:24;;;;;;;24.00;17.10;;;;;;;2.48;90.62;101704.39;112683;244;38811;-72
2023/12/15 10:33:58;;;;;;;24.90;17.00;;;;;;;2.46;90.51;101703.49;112598;244;39070;-72
2023/12/15 10:36:34;;;;;;;28.80;18.10;;;;;;;2.47;90.65;101700.75;112515;244;175181;-72
2023/12/15 10:39:10;;;;;;;25.10;17.10;;;;;;;2.47;90.52;101704.71;112618;244;38365;-72
2023/12/15 10:41:44;;;;;;;25.20;17.00;;;;;;;2.51;90.59;101714.95;112520;243;154908;-72
2023/12/15 10:44:18;;;;;;;26.90;17.60;;;;;;;2.51;90.47;101711.67;112648;244;39479;-72
2023/12/15 10:46:53;;;;;;;27.60;19.00;;;;;;;2.52;90.65;101720.30;112518;243;154943;-72
2023/12/15 10:49:28;;;;;;;26.90;18.00;;;;;;;2.55;90.75;101714.48;112669;244;38524;-72
2023/12/15 10:55:45;;;;;;;24.40;17.00;;;;;;;2.44;90.07;101707.09;112676;243;38400;-73
2023/12/15 10:58:19;;;;;;;29.50;19.30;;;;;;;2.46;90.47;101697.29;112645;242;154194;-72
2023/12/15 11:00:53;;;;;;;25.90;18.00;;;;;;;2.50;90.66;101686.34;112591;244;175771;-73
2023/12/15 11:03:27;;;;;;;31.00;20.50;;;;;;;2.55;90.74;101674.88;112713;244;38446;-73
2023/12/15 11:09:39;;;;;;;28.00;18.00;;;;;;;2.59;90.69;101683.90;112739;242;38372;-72
2023/12/15 11:12:30;;;;;;;25.50;17.00;;;;;;;2.60;90.69;101693.23;112528;243;155235;-74
2023/12/15 11:15:07;;;;;;;28.50;17.90;;;;;;;2.63;90.59;101703.59;112840;243;38361;-70
2023/12/15 11:17:56;;;;;;;171.30;30.90;;;;;;;2.67;91.07;101705.40;112588;241;153602;-73
2023/12/15 11:24:02;;;;;;;31.70;18.00;;;;;;;2.80;91.04;101723.16;112668;242;38282;-70
2023/12/15 11:26:38;;;;;;;29.40;17.30;;;;;;;2.83;90.62;101724.58;112653;244;190618;-70
2023/12/15 11:29:15;;;;;;;24.80;17.20;;;;;;;2.80;90.16;101727.13;112593;241;154579;-70
2023/12/15 11:31:47;;;;;;;29.40;18.90;;;;;;;2.80;90.11;101730.92;112707;244;38500;-73
2023/12/15 11:34:43;;;;;;;26.30;18.10;;;;;;;2.82;90.29;101735.79;112622;244;38795;-76
2023/12/15 11:37:17;;;;;;;27.70;19.30;;;;;;;2.83;90.25;101740.44;112650;245;38585;-71
2023/12/15 11:39:52;;;;;;;26.40;18.60;;;;;;;2.80;90.11;101743.34;112664;245;38418;-72
2023/12/15 11:42:30;;;;;;;28.60;18.60;;;;;;;2.81;90.55;101743.86;112449;244;153846;-73
2023/12/15 11:45:07;;;;;;;30.60;18.20;;;;;;;2.84;90.43;101750.63;112634;245;39139;-72
2023/12/15 11:47:41;;;;;;;27.70;17.60;;;;;;;2.86;90.44;101750.83;112445;245;154208;-73
2023/12/15 11:50:16;;;;;;;28.30;18.00;;;;;;;2.92;90.49;101758.68;112584;245;38465;-72
2023/12/15 11:52:51;;;;;;;28.70;18.50;;;;;;;2.96;90.59;101751.34;112375;244;153726;-72
2023/12/15 11:55:25;;;;;;;30.70;19.50;;;;;;;3.04;90.85;101753.35;112603;245;38937;-72
2023/12/15 11:57:59;;;;;;;28.30;19.60;;;;;;;3.08;90.84;101754.95;112634;245;38831;-72
2023/12/15 12:00:35;;;;;;;31.70;18.30;;;;;;;3.08;90.55;101749.27;112481;244;153918;-72
2023/12/15 12:03:19;;;;;;;28.70;18.20;;;;;;;3.06;90.36;101749.75;112625;245;39589;-72
2023/12/15 12:05:55;;;;;;;30.10;18.90;;;;;;;3.07;90.38;101749.95;112449;243;155747;-73
2023/12/15 12:08:29;;;;;;;25.20;17.70;;;;;;;3.08;90.02;101755.98;112637;245;39648;-72
2023/12/15 12:11:04;;;;;;;28.40;18.70;;;;;;;3.10;90.17;101762.57;112530;244;154354;-72
2023/12/15 12:13:39;;;;;;;26.40;18.40;;;;;;;3.07;89.87;101760.63;112598;245;39500;-73
2023/12/15 12:16:13;;;;;;;29.20;18.80;;;;;;;3.05;89.98;101759.41;112477;245;175144;-73
2023/12/15 12:18:49;;;;;;;29.50;19.20;;;;;;;3.05;90.03;101760.61;112475;244;153934;-73
2023/12/15 12:21:23;;;;;;;25.30;17.30;;;;;;;3.04;89.75;101761.78;112654;245;38689;-73
2023/12/15 12:23:59;;;;;;;27.30;18.30;;;;;;;3.04;89.91;101758.85;112492;244;154392;-73
2023/12/15 12:26:36;;;;;;;26.10;18.30;;;;;;;3.04;89.53;101756.62;112551;245;38243;-73
2023/12/15 12:32:49;;;;;;;30.20;20.10;;;;;;;3.02;89.82;101753.14;112704;241;38488;-73
2023/12/15 12:35:23;;;;;;;30.90;19.20;;;;;;;3.00;89.82;101751.39;112557;242;172595;-72
2023/12/15 12:37:58;;;;;;;32.20;20.30;;;;;;;2.99;89.70;101751.38;112740;243;38321;-72
2023/12/15 12:40:32;;;;;;;28.80;19.10;;;;;;;2.98;89.66;101749.28;112741;241;155277;-73
2023/12/15 12:46:22;;;;;;;33.10;22.50;;;;;;;2.96;89.75;101748.58;112818;243;38268;-72
2023/12/15 12:52:23;;;;;;;31.30;20.80;;;;;;;2.90;89.60;101763.64;112826;241;38251;-71
2023/12/15 12:54:57;;;;;;;31.30;19.20;;;;;;;2.89;89.61;101763.79;112666;243;38861;-71
2023/12/15 12:57:31;;;;;;;30.50;20.50;;;;;;;2.89;89.55;101762.76;112862;243;38249;-72
2023/12/15 13:00:08;;;;;;;29.70;21.00;;;;;;;2.90;89.59;101763.47;112578;243;153569;-72
2023/12/15 13:02:42;;;;;;;31.80;21.20;;;;;;;2.89;89.52;101761.04;112839;243;39456;-72
2023/12/15 13:05:16;;;;;;;28.60;19.90;;;;;;;2.88;89.57;101765.67;112666;241;153908;-72
2023/12/15 13:07:50;;;;;;;30.70;20.10;;;;;;;2.85;89.43;101767.19;112747;243;38683;-72
2023/12/15 13:10:24;;;;;;;28.00;19.70;;;;;;;2.87;89.53;101767.73;112838;243;38763;-72
2023/12/15 13:12:58;;;;;;;27.90;20.40;;;;;;;2.89;89.33;101770.52;112645;243;38617;-71
2023/12/15 13:15:31;;;;;;;29.40;20.80;;;;;;;2.90;89.37;101772.09;112831;243;38813;-70
2023/12/15 13:18:06;;;;;;;31.70;22.10;;;;;;;2.87;89.30;101774.63;112850;243;38271;-71
2023/12/15 13:24:20;;;;;;;31.70;20.40;;;;;;;2.81;89.24;101774.88;112819;241;39519;-72
2023/12/15 13:26:54;;;;;;;29.80;20.90;;;;;;;2.81;89.20;101776.77;112841;242;39109;-71
2023/12/15 13:29:28;;;;;;;30.70;21.60;;;;;;;2.80;89.34;101779.17;112728;240;154146;-71
2023/12/15 13:32:03;;;;;;;33.10;23.30;;;;;;;2.80;89.42;101785.38;112859;242;39456;-72
2023/12/15 13:34:37;;;;;;;35.10;24.40;;;;;;;2.78;89.53;101788.79;112853;242;38255;-72
2023/12/15 13:37:16;;;;;;;34.00;23.10;;;;;;;2.76;89.44;101788.23;112863;242;39578;-72
2023/12/15 13:39:51;;;;;;;38.70;23.40;;;;;;;2.77;89.68;101791.36;112651;245;38999;-73